Time;durP1;ratioP1;P1;durP2;ratioP2;P2;SDS_P1;SDS_P2;PMS_P1;PMS_P2;Temp;Humidity;BMP_temperature;BMP_pressure;BME280_temperature;BME280_humidity;BME280_pressure;Samples;Min_cycle;Max_cycle;Signal;HPM_P1;HPM_P2
2022/01/02 00:00:37;;;;;;;11.38;6.15;;;;;;;7.87;70.99;98512.63;12701153;23;20029;-79
2022/01/02 00:05:59;;;;;;;8.73;4.22;;;;;;;7.85;70.86;98495.03;12757447;23;20370;-78
2022/01/02 00:11:20;;;;;;;9.63;4.35;;;;;;;7.74;71.30;98501.72;12824878;23;20017;-78
2022/01/02 00:16:41;;;;;;;13.10;5.60;;;;;;;7.80;71.20;98488.38;12803260;23;20435;-78
2022/01/02 00:22:12;;;;;;;9.27;5.32;;;;;;;7.74;71.34;98491.34;12802404;23;20431;-78
2022/01/02 00:27:34;;;;;;;10.95;5.57;;;;;;;7.70;71.46;98488.19;12823091;23;20020;-78
2022/01/02 00:32:56;;;;;;;13.13;5.80;;;;;;;7.70;71.40;98488.19;12823012;23;20087;-78
2022/01/02 00:38:20;;;;;;;11.82;5.65;;;;;;;7.64;71.48;98484.16;12802200;23;20021;-79
2022/01/02 00:43:44;;;;;;;;;;;;;;;7.56;71.85;98475.06;12803439;23;20013;-79
2022/01/02 00:49:05;;;;;;;12.05;5.35;;;;;;;7.46;71.92;98469.34;12802267;23;19963;-78
2022/01/02 00:54:27;;;;;;;8.75;5.35;;;;;;;7.49;71.83;98489.69;12823544;23;20017;-78
2022/01/02 01:00:17;;;;;;;10.98;5.65;;;;;;;7.41;71.93;98473.78;12802444;23;20020;-78
2022/01/02 01:05:38;;;;;;;10.52;5.53;;;;;;;7.34;72.19;98457.13;12801717;23;20024;-78
2022/01/02 01:10:59;;;;;;;12.48;6.07;;;;;;;7.27;72.54;98441.19;12822864;23;20017;-78
2022/01/02 01:16:22;;;;;;;8.80;5.55;;;;;;;7.24;72.03;98440.28;12781330;23;20095;-79
2022/01/02 01:21:43;;;;;;;10.02;6.25;;;;;;;7.23;72.44;98436.00;12821299;23;20017;-78
2022/01/02 01:27:07;;;;;;;10.02;5.43;;;;;;;7.25;72.51;98433.44;12802276;23;20024;-79
2022/01/02 01:32:28;;;;;;;16.23;6.25;;;;;;;7.30;72.47;98440.09;12802213;23;20021;-78
2022/01/02 01:37:49;;;;;;;10.23;5.72;;;;;;;7.31;72.83;98430.44;12801499;23;20077;-78
2022/01/02 01:43:13;;;;;;;9.80;6.18;;;;;;;7.33;72.65;98417.47;12821677;23;20020;-79
2022/01/02 01:48:36;;;;;;;;;;;;;;;7.26;72.57;98404.34;12801887;23;20031;-79
2022/01/02 01:53:58;;;;;;;11.15;5.40;;;;;;;7.24;73.22;98406.19;12760491;23;20346;-78
2022/01/02 01:59:20;;;;;;;11.57;5.70;;;;;;;7.29;72.87;98399.72;12780892;23;20013;-79
2022/01/02 02:04:42;;;;;;;9.80;5.43;;;;;;;7.29;72.41;98371.94;12808416;23;20017;-79
2022/01/02 02:10:13;;;;;;;10.55;5.68;;;;;;;7.24;72.35;98375.66;12800250;23;20028;-79
2022/01/02 02:15:35;;;;;;;10.75;6.32;;;;;;;7.20;72.91;98353.81;12800507;23;20017;-78
2022/01/02 02:20:57;;;;;;;11.93;6.45;;;;;;;7.20;72.96;98370.47;12800441;23;20044;-79
2022/01/02 02:26:22;;;;;;;10.82;6.25;;;;;;;7.21;72.81;98374.72;12800093;23;20021;-78
2022/01/02 02:31:42;;;;;;;12.15;6.32;;;;;;;7.17;72.85;98368.81;12800566;23;20302;-79
2022/01/02 02:37:04;;;;;;;11.50;6.65;;;;;;;7.16;73.32;98345.13;12779899;23;20435;-78
2022/01/02 02:42:42;;;;;;;9.65;6.05;;;;;;;7.11;73.09;98338.47;12820386;23;20067;-78
2022/01/02 02:53:56;;;;;;;11.65;6.72;;;;;;;6.84;73.12;98332.56;12841386;23;20399;-78
2022/01/02 02:59:18;;;;;;;13.40;6.93;;;;;;;6.73;73.26;98310.00;12799444;23;20027;-78
2022/01/02 03:04:39;;;;;;;12.63;6.60;;;;;;;6.66;73.56;98319.06;12787785;23;20043;-78
2022/01/02 03:10:02;;;;;;;13.52;6.43;;;;;;;6.66;73.80;98317.06;12799846;23;20017;-78
2022/01/02 03:15:23;;;;;;;10.98;5.90;;;;;;;6.67;73.85;98298.38;12779110;23;20051;-78
2022/01/02 03:20:44;;;;;;;12.88;6.43;;;;;;;6.60;73.95;98275.63;12798191;23;20326;-78
2022/01/02 03:26:06;;;;;;;12.93;6.28;;;;;;;6.58;73.99;98291.34;12820299;23;20021;-78
2022/01/02 03:31:27;;;;;;;9.68;6.05;;;;;;;6.54;73.54;98288.91;12799217;23;20097;-78
2022/01/02 03:36:50;;;;;;;11.48;6.05;;;;;;;6.50;73.97;98304.47;12820401;23;20482;-79
2022/01/02 03:42:11;;;;;;;10.48;5.45;;;;;;;6.46;74.29;98268.75;12778888;23;20028;-78
2022/01/02 03:47:33;;;;;;;12.52;5.75;;;;;;;6.40;74.44;98254.34;12799190;23;20019;-78
2022/01/02 03:52:54;;;;;;;9.48;5.07;;;;;;;6.37;74.65;98258.25;12819406;23;20020;-79
2022/01/02 03:58:16;;;;;;;8.52;5.25;;;;;;;6.38;74.40;98240.31;12778394;23;20017;-79
2022/01/02 04:03:38;;;;;;;8.45;4.35;;;;;;;6.42;74.19;98217.75;12790618;23;20024;-78
2022/01/02 04:09:00;;;;;;;8.50;4.97;;;;;;;6.41;74.13;98228.09;12798378;23;20017;-78
2022/01/02 04:14:22;;;;;;;9.93;4.68;;;;;;;6.37;74.16;98211.09;12799403;23;20044;-79
2022/01/02 04:19:44;;;;;;;9.57;4.85;;;;;;;6.40;74.04;98196.13;12799210;23;20071;-79
2022/01/02 04:25:06;;;;;;;8.30;4.93;;;;;;;6.34;74.45;98209.44;12819183;23;20041;-78
2022/01/02 04:30:27;;;;;;;8.77;4.75;;;;;;;6.46;73.97;98218.09;12778539;23;20021;-79
2022/01/02 04:35:48;;;;;;;7.88;4.75;;;;;;;6.52;73.90;98204.78;12799086;23;20324;-78
2022/01/02 04:41:09;;;;;;;8.07;4.57;;;;;;;6.46;74.30;98199.44;12799957;23;20024;-79
2022/01/02 04:46:31;;;;;;;8.30;4.30;;;;;;;6.46;74.17;98182.78;12821412;23;20091;-79
2022/01/02 04:51:53;;;;;;;7.10;4.07;;;;;;;6.46;74.02;98171.69;12802075;23;20063;-79
2022/01/02 04:57:15;;;;;;;6.45;4.05;;;;;;;6.51;74.18;98168.00;12821821;23;20411;-79
2022/01/02 05:02:36;;;;;;;6.10;3.70;;;;;;;6.56;73.93;98166.31;12797808;23;20447;-79
2022/01/02 05:07:58;;;;;;;7.70;4.35;;;;;;;6.49;74.07;98158.78;12821575;23;20028;-79
2022/01/02 05:13:20;;;;;;;6.25;3.63;;;;;;;6.43;73.74;98166.53;12778434;23;20055;-79
2022/01/02 05:18:41;;;;;;;6.97;4.00;;;;;;;6.44;74.24;98170.78;12800206;23;20021;-79
2022/01/02 05:24:03;;;;;;;7.38;4.47;;;;;;;6.42;73.95;98151.19;12821434;23;20033;-78
2022/01/02 05:29:25;;;;;;;7.05;4.10;;;;;;;6.40;74.12;98171.16;12800510;23;20336;-79
2022/01/02 05:34:47;;;;;;;5.55;3.45;;;;;;;6.34;74.10;98162.28;12818704;23;20017;-77
2022/01/02 05:40:11;;;;;;;7.70;3.80;;;;;;;6.33;74.25;98146.94;12799014;23;20032;-79
2022/01/02 05:45:34;;;;;;;6.60;4.10;;;;;;;6.21;73.76;98138.28;12782681;23;20013;-80
2022/01/02 05:50:56;;;;;;;5.72;3.50;;;;;;;6.21;74.37;98127.19;12781440;23;20387;-79
2022/01/02 05:56:17;;;;;;;7.90;3.72;;;;;;;6.23;73.90;98132.19;12803615;23;20020;-79
2022/01/02 06:01:38;;;;;;;7.38;3.97;;;;;;;6.24;74.16;98125.34;12804479;23;20370;-79
2022/01/02 06:07:01;;;;;;;9.63;4.00;;;;;;;6.17;74.37;98134.38;12791556;23;20458;-79
2022/01/02 06:12:25;;;;;;;6.65;4.25;;;;;;;6.12;74.08;98113.91;12811144;23;20099;-80
2022/01/02 06:17:46;;;;;;;9.30;4.73;;;;;;;6.13;74.25;98104.28;12809546;23;20021;-80
2022/01/02 06:23:09;;;;;;;9.32;4.90;;;;;;;6.08;74.30;98094.16;12792619;23;20095;-80
2022/01/02 06:28:30;;;;;;;9.07;3.90;;;;;;;6.02;74.51;98091.56;12787525;23;20013;-80
2022/01/02 06:33:51;;;;;;;7.40;4.50;;;;;;;6.00;74.46;98085.84;12830966;23;20020;-80
2022/01/02 06:39:12;;;;;;;9.32;4.53;;;;;;;6.01;74.70;98087.31;12794440;23;20104;-80
2022/01/02 06:44:34;;;;;;;10.38;5.00;;;;;;;6.03;74.40;98090.25;12833884;23;20017;-80
2022/01/02 06:49:55;;;;;;;12.30;4.38;;;;;;;5.98;74.72;98079.34;12810986;23;20013;-80
2022/01/02 06:55:17;;;;;;;13.13;5.47;;;;;;;6.05;74.85;98078.59;12810355;23;20020;-80
2022/01/02 07:00:38;;;;;;;10.93;4.82;;;;;;;6.12;74.67;98088.22;12832995;23;20069;-80
2022/01/02 07:06:01;;;;;;;11.88;5.35;;;;;;;6.17;74.48;98074.16;12814651;23;20021;-80
2022/01/02 07:11:23;;;;;;;9.45;5.20;;;;;;;6.27;74.54;98064.00;12806382;23;20024;-80
2022/01/02 07:16:44;;;;;;;12.35;5.72;;;;;;;6.50;74.15;98066.69;12792219;23;20021;-80
2022/01/02 07:22:10;;;;;;;11.73;5.32;;;;;;;6.86;73.63;98060.06;12788860;23;20032;-80
2022/01/02 07:27:31;;;;;;;10.05;5.10;;;;;;;7.53;73.33;98067.78;12802998;23;20067;-79
2022/01/02 07:32:53;;;;;;;9.70;5.63;;;;;;;8.11;71.86;98060.84;12781783;23;20027;-78
2022/01/02 07:38:14;;;;;;;17.15;7.68;;;;;;;9.06;71.18;98072.56;12778246;23;20017;-79
2022/01/02 07:43:34;;;;;;;10.48;5.40;;;;;;;10.79;72.59;98072.31;12800107;23;20013;-79
2022/01/02 07:48:56;;;;;;;9.85;5.05;;;;;;;13.74;64.35;98057.41;12825921;23;20024;-79
2022/01/02 07:54:17;;;;;;;8.82;4.30;;;;;;;17.58;59.39;98056.47;12762336;23;20021;-80
2022/01/02 07:59:38;;;;;;;7.05;4.13;;;;;;;17.91;50.51;98039.59;12811452;23;20044;-80
2022/01/02 08:05:19;;;;;;;7.05;4.45;;;;;;;17.89;55.37;98036.69;12813415;23;20029;-80
2022/01/02 08:10:40;;;;;;;6.68;4.35;;;;;;;19.41;53.79;98028.00;12820457;23;20085;-81
2022/01/02 08:16:00;;;;;;;6.70;4.13;;;;;;;17.96;43.15;98003.81;12778764;23;20024;-80
2022/01/02 08:21:21;;;;;;;6.93;4.30;;;;;;;17.48;51.93;98013.69;12802410;23;20021;-81
2022/01/02 08:26:42;;;;;;;6.55;3.70;;;;;;;20.64;48.62;98024.50;12822452;23;20020;-81
2022/01/02 08:32:03;;;;;;;4.80;3.17;;;;;;;19.51;48.42;98021.28;12822865;23;20017;-82
2022/01/02 08:37:24;;;;;;;5.72;3.65;;;;;;;16.22;51.24;98017.63;12822306;23;20013;-80
2022/01/02 08:42:45;;;;;;;6.45;3.90;;;;;;;15.31;52.15;98024.16;12802512;23;20367;-80
2022/01/02 08:48:06;;;;;;;7.05;3.40;;;;;;;16.48;51.52;98018.19;12802521;23;20340;-80
2022/01/02 08:53:27;;;;;;;7.18;3.60;;;;;;;18.20;49.84;98038.00;12822810;23;20044;-81
2022/01/02 08:58:48;;;;;;;6.95;3.33;;;;;;;20.87;45.34;98031.63;12822131;23;20027;-81
2022/01/02 09:04:08;;;;;;;5.45;3.10;;;;;;;19.86;44.38;98040.97;12792242;23;20060;-86
2022/01/02 09:09:29;;;;;;;5.22;2.95;;;;;;;19.08;44.21;98031.69;12800953;23;20017;-86
2022/01/02 09:14:51;;;;;;;3.35;2.58;;;;;;;19.54;44.21;98022.78;12801731;23;20013;-80
2022/01/02 09:20:13;;;;;;;3.65;2.30;;;;;;;22.22;41.29;98017.13;12822682;23;20017;-80
2022/01/02 09:25:34;;;;;;;3.95;2.10;;;;;;;24.75;37.04;98031.75;12823347;23;20013;-81
2022/01/02 09:30:54;;;;;;;3.72;2.30;;;;;;;22.10;37.03;98018.88;12799523;23;20021;-83
2022/01/02 09:36:16;;;;;;;4.10;2.75;;;;;;;18.44;40.52;98013.59;12777691;23;20023;-82
2022/01/02 09:41:38;;;;;;;4.55;2.70;;;;;;;16.54;42.21;98020.56;12801005;23;20021;-84
2022/01/02 09:46:59;;;;;;;3.83;2.10;;;;;;;15.28;43.91;98017.69;12801131;23;20063;-88
2022/01/02 09:52:19;;;;;;;5.35;2.30;;;;;;;14.41;45.13;97993.94;12778309;23;20071;-81
2022/01/02 09:57:48;;;;;;;4.47;2.72;;;;;;;13.49;46.20;97985.09;12840940;23;20031;-77
2022/01/02 10:09:33;;;;;;;6.22;2.70;;;;;;;11.98;48.91;97984.06;12842916;23;20000;-79
2022/01/02 10:15:06;;;;;;;6.63;3.45;;;;;;;11.70;49.63;97971.72;12889231;23;20019;-81
2022/01/02 10:20:28;;;;;;;5.28;3.80;;;;;;;11.79;50.16;97975.78;12866494;23;20164;-81
2022/01/02 10:25:49;;;;;;;6.32;2.85;;;;;;;13.13;49.26;97958.38;12888517;23;20027;-79
2022/01/02 10:31:15;;;;;;;5.50;2.95;;;;;;;13.31;48.64;97951.06;12930463;23;20054;-80
2022/01/02 10:36:40;;;;;;;5.00;2.92;;;;;;;13.09;49.49;97933.63;12868129;23;20017;-80
2022/01/02 10:42:01;;;;;;;3.88;2.63;;;;;;;12.87;50.05;97935.06;12870532;23;20023;-81
2022/01/02 10:47:24;;;;;;;5.55;2.70;;;;;;;12.61;50.79;97925.78;12909082;23;20020;-79
2022/01/02 10:52:46;;;;;;;5.88;3.10;;;;;;;12.59;50.63;97925.66;12909614;23;20027;-80
2022/01/02 10:58:07;;;;;;;7.85;3.03;;;;;;;12.66;51.17;97909.97;12930111;23;20410;-80
2022/01/02 11:03:29;;;;;;;5.45;2.83;;;;;;;12.88;50.58;97891.72;12877676;23;20475;-79
2022/01/02 11:08:55;;;;;;;4.63;3.00;;;;;;;12.72;50.43;97890.72;12837187;23;20019;-82
2022/01/02 11:14:16;;;;;;;6.82;3.47;;;;;;;12.43;50.95;97888.22;12854450;23;20024;-81
2022/01/02 11:19:36;;;;;;;66.45;22.20;;;;;;;12.32;51.81;97876.41;12823293;23;20024;-79
2022/01/02 11:25:21;;;;;;;6.13;3.33;;;;;;;12.25;51.77;97857.03;12858416;23;20465;-82
2022/01/02 11:30:41;;;;;;;3.92;2.60;;;;;;;12.25;52.70;97845.84;12861528;23;20020;-79
2022/01/02 11:36:21;;;;;;;5.82;3.20;;;;;;;12.14;52.42;97841.66;12910680;23;20047;-82
2022/01/02 11:42:00;;;;;;;4.93;2.80;;;;;;;12.09;52.62;97839.97;12838314;23;20091;-82
2022/01/02 11:47:46;;;;;;;4.10;2.50;;;;;;;11.80;52.91;97819.94;12871559;23;20009;-80
2022/01/02 11:53:17;;;;;;;7.32;2.83;;;;;;;11.85;53.29;97827.22;12874742;23;20031;-81
2022/01/02 11:58:44;;;;;;;5.43;2.75;;;;;;;11.71;52.87;97810.97;12899393;23;19997;-83
2022/01/02 12:04:06;;;;;;;5.47;3.13;;;;;;;11.62;53.24;97811.78;12888751;23;20044;-79
2022/01/02 12:09:34;;;;;;;4.53;3.35;;;;;;;11.62;53.87;97789.44;12857278;23;20036;-78
2022/01/02 12:14:55;;;;;;;6.38;3.50;;;;;;;11.67;54.04;97782.75;12854945;23;20095;-78
2022/01/02 12:20:16;;;;;;;4.97;3.42;;;;;;;11.81;54.04;97782.22;12836820;23;20030;-77
2022/01/02 12:25:37;;;;;;;6.60;3.65;;;;;;;11.68;53.78;97770.25;12884357;23;20012;-83
2022/01/02 12:30:57;;;;;;;6.07;3.67;;;;;;;11.54;54.21;97763.75;12894877;23;20016;-83
2022/01/02 12:36:18;;;;;;;5.80;3.60;;;;;;;11.38;54.16;97757.84;12852907;23;20080;-86
2022/01/02 12:41:44;;;;;;;7.20;3.65;;;;;;;11.27;54.87;97777.34;12892976;23;20064;-84
2022/01/02 12:47:10;;;;;;;6.78;4.20;;;;;;;11.24;55.12;97750.63;12853590;23;20035;-85
2022/01/02 12:52:31;;;;;;;5.55;3.53;;;;;;;11.27;55.17;97738.22;12896441;23;20017;-80
2022/01/02 12:58:05;;;;;;;5.55;3.80;;;;;;;11.22;55.29;97736.53;12894415;23;20065;-81
2022/01/02 13:03:26;;;;;;;7.88;3.95;;;;;;;11.14;55.26;97743.03;12852286;23;20057;-84
2022/01/02 13:08:55;;;;;;;9.15;4.85;;;;;;;11.12;55.22;97737.31;12846231;23;20016;-80
2022/01/02 13:14:45;;;;;;;8.27;4.95;;;;;;;11.07;55.67;97730.00;12830228;23;20054;-80
2022/01/02 13:20:17;;;;;;;8.18;3.97;;;;;;;11.01;55.80;97718.44;12815403;23;20024;-78
2022/01/02 13:25:42;;;;;;;8.23;3.38;;;;;;;10.96;55.85;97716.72;12833117;23;20023;-79
2022/01/02 13:31:02;;;;;;;5.15;3.70;;;;;;;10.89;55.86;97709.25;12873791;23;20012;-80
2022/01/02 13:36:27;;;;;;;6.10;3.83;;;;;;;10.84;56.13;97708.28;12854164;23;20012;-82
2022/01/02 13:41:51;;;;;;;5.80;3.78;;;;;;;10.86;56.45;97718.84;12918790;23;20028;-86
2022/01/02 13:47:12;;;;;;;;;;;;;;;10.87;56.95;97717.50;12834284;23;20031;-86
2022/01/02 13:52:51;;;;;;;7.57;4.70;;;;;;;10.88;56.68;97722.47;12915680;23;19940;-82
2022/01/02 13:58:19;;;;;;;6.65;4.60;;;;;;;10.84;56.71;97705.47;12875089;23;20016;-87
2022/01/02 14:03:41;;;;;;;8.02;4.45;;;;;;;10.79;57.16;97711.38;12874379;23;20048;-88
2022/01/02 14:09:09;;;;;;;8.32;4.57;;;;;;;10.73;57.05;97705.41;12895134;23;20013;-85
2022/01/02 14:14:47;;;;;;;8.05;4.65;;;;;;;10.67;57.29;97696.63;12834998;23;20024;-87
2022/01/02 14:20:11;;;;;;;6.50;3.88;;;;;;;10.63;57.25;97713.84;12881473;23;20041;-85
2022/01/02 14:25:32;;;;;;;7.95;5.07;;;;;;;10.58;57.28;97693.28;12874754;23;20068;-87
2022/01/02 14:30:53;;;;;;;6.97;4.50;;;;;;;10.54;57.45;97667.19;12854287;23;20024;-85
2022/01/02 14:36:13;;;;;;;6.70;3.72;;;;;;;10.50;57.84;97673.22;12894398;23;20036;-85
2022/01/02 14:41:38;;;;;;;5.57;4.00;;;;;;;10.41;57.64;97645.38;12918111;23;20036;-85
2022/01/02 14:46:59;;;;;;;7.75;4.32;;;;;;;10.41;57.93;97632.16;12857161;23;20020;-84
2022/01/02 14:58:40;;;;;;;5.50;3.58;;;;;;;10.36;57.77;97624.84;12836616;23;20025;-85
2022/01/02 15:04:02;;;;;;;9.60;3.95;;;;;;;10.35;57.86;97628.25;12773510;23;20391;-87
2022/01/02 15:09:34;;;;;;;;;;;;;;;;;;;;;
2022/01/02 15:21:12;;;;;;;5.30;3.20;;;;;;;10.44;57.53;97610.72;12807204;23;20032;-86
2022/01/02 15:26:33;;;;;;;5.25;3.40;;;;;;;10.40;57.66;97613.94;12871310;23;20020;-81
2022/01/02 15:32:13;;;;;;;5.40;3.53;;;;;;;10.35;57.71;97589.91;12701375;23;20013;-87
2022/01/02 15:37:36;;;;;;;5.28;2.90;;;;;;;10.34;57.82;97566.13;12793719;23;20043;-84
2022/01/02 15:43:01;;;;;;;4.72;3.03;;;;;;;10.31;57.90;97556.88;12815522;23;20020;-83
2022/01/02 15:55:33;;;;;;;6.22;3.28;;;;;;;10.45;57.83;97548.72;12676945;23;20620;31
2022/01/02 16:07:27;;;;;;;6.70;3.83;;;;;;;10.48;57.69;97530.03;12849267;23;20097;-87
2022/01/02 16:12:50;;;;;;;7.07;4.25;;;;;;;10.47;57.82;97532.09;12833950;23;20048;-82
2022/01/02 16:18:12;;;;;;;6.60;3.70;;;;;;;10.44;57.36;97516.56;12782192;23;20052;-78
2022/01/02 16:23:33;;;;;;;5.50;2.95;;;;;;;10.34;57.35;97504.03;12738500;23;20343;-77
2022/01/02 16:28:54;;;;;;;6.80;2.75;;;;;;;10.21;57.26;97502.47;12758001;23;20079;-76
2022/01/02 16:34:14;;;;;;;6.80;3.00;;;;;;;10.09;57.50;97502.41;12759402;23;20013;-79
2022/01/02 16:39:36;;;;;;;5.80;3.17;;;;;;;9.91;57.70;97490.78;12759734;23;20024;-77
2022/01/02 16:44:57;;;;;;;8.15;3.65;;;;;;;9.80;57.64;97499.81;12783494;23;20028;-81
2022/01/02 16:50:17;;;;;;;6.40;3.83;;;;;;;9.74;57.66;97493.81;12811728;23;20044;-80
2022/01/02 16:55:38;;;;;;;6.22;3.58;;;;;;;9.72;57.16;97513.19;12787682;23;20027;-79
2022/01/02 17:00:59;;;;;;;7.20;3.50;;;;;;;9.71;57.21;97503.38;12748005;23;20023;-80
2022/01/02 17:06:20;;;;;;;7.00;3.45;;;;;;;9.77;56.83;97512.16;12815078;23;20041;-80
2022/01/02 17:11:40;;;;;;;6.03;2.70;;;;;;;9.81;57.12;97520.06;12803822;23;20428;-78
2022/01/02 17:17:03;;;;;;;4.35;2.70;;;;;;;9.82;56.47;97525.03;12759994;23;20039;-78
2022/01/02 17:22:23;;;;;;;5.30;3.17;;;;;;;9.77;56.27;97517.72;12761237;23;20017;-77
2022/01/02 17:27:44;;;;;;;5.20;3.05;;;;;;;9.71;56.41;97531.25;12784404;23;20020;-78
2022/01/02 17:33:05;;;;;;;5.35;3.22;;;;;;;9.70;56.09;97507.50;12742883;23;20028;-77
2022/01/02 17:38:26;;;;;;;6.80;3.80;;;;;;;9.64;55.78;97507.81;12801383;23;20013;-76
2022/01/02 17:43:48;;;;;;;6.53;4.00;;;;;;;9.64;55.84;97498.72;12760055;23;20024;-77
2022/01/02 17:49:09;;;;;;;6.25;3.72;;;;;;;9.61;55.51;97506.22;12765230;23;20019;-84
2022/01/02 17:54:31;;;;;;;5.85;3.00;;;;;;;9.62;55.51;97495.81;12838485;23;20005;-81
2022/01/02 17:59:52;;;;;;;6.85;3.58;;;;;;;9.64;55.09;97498.72;12831664;23;20044;-80
2022/01/02 18:05:13;;;;;;;4.68;2.65;;;;;;;9.67;54.92;97503.13;12826709;23;20013;-84
2022/01/02 18:10:37;;;;;;;6.25;2.53;;;;;;;9.70;54.89;97499.88;12799683;23;20102;-77
2022/01/02 18:15:57;;;;;;;4.43;3.10;;;;;;;9.77;54.72;97489.84;12781360;23;20013;-77
2022/01/02 18:21:18;;;;;;;3.75;2.17;;;;;;;9.76;54.39;97499.56;12738880;23;20072;-77
2022/01/02 18:26:38;;;;;;;3.60;2.15;;;;;;;9.73;54.28;97511.88;12779705;23;20020;-76
2022/01/02 18:31:59;;;;;;;6.05;2.78;;;;;;;9.63;54.44;97523.06;12802748;23;20306;-80
2022/01/02 18:37:20;;;;;;;3.00;2.05;;;;;;;9.52;54.75;97531.34;12794988;23;20017;-82
2022/01/02 18:42:41;;;;;;;4.45;2.50;;;;;;;9.42;55.08;97525.81;12833384;23;20061;-81
2022/01/02 18:48:02;;;;;;;4.72;2.58;;;;;;;9.32;55.44;97534.22;12817807;23;20099;-81
2022/01/02 18:53:22;;;;;;;7.07;2.90;;;;;;;9.27;55.56;97534.53;12808493;23;20005;-81
2022/01/02 18:58:43;;;;;;;6.18;2.45;;;;;;;9.28;55.99;97525.59;12815521;23;20025;-82
2022/01/02 19:04:04;;;;;;;4.70;2.97;;;;;;;9.26;56.19;97544.91;12825123;23;20020;-82
2022/01/02 19:09:25;;;;;;;5.43;2.65;;;;;;;9.23;56.48;97546.13;12794985;23;20044;-76
2022/01/02 19:14:46;;;;;;;4.07;2.28;;;;;;;9.17;56.71;97565.19;12737739;23;20021;-76
2022/01/02 19:20:09;;;;;;;5.28;2.70;;;;;;;9.17;56.78;97567.97;12758312;23;20025;-76
2022/01/02 19:25:29;;;;;;;6.22;3.45;;;;;;;9.10;57.34;97575.19;12799000;23;20023;-76
2022/01/02 19:30:50;;;;;;;6.22;3.45;;;;;;;9.03;57.43;97578.13;12778171;23;20360;-76
2022/01/02 19:36:11;;;;;;;5.43;3.35;;;;;;;8.93;57.75;97585.75;12757578;23;20017;-77
2022/01/02 19:41:32;;;;;;;6.43;3.30;;;;;;;8.82;57.78;97596.16;12737463;23;20436;-77
2022/01/02 19:46:53;;;;;;;6.20;3.15;;;;;;;8.82;58.38;97587.09;12777844;23;20025;-77
2022/01/02 19:52:14;;;;;;;8.35;3.95;;;;;;;8.86;58.48;97581.78;12777698;23;20027;-76
2022/01/02 19:57:44;;;;;;;7.32;3.80;;;;;;;8.91;58.36;97596.75;12782050;23;20368;-76
2022/01/02 20:03:05;;;;;;;6.63;3.60;;;;;;;8.97;58.47;97602.72;12757530;23;20063;-77
2022/01/02 20:08:26;;;;;;;8.50;3.28;;;;;;;8.86;58.62;97576.97;12757454;23;20024;-77
2022/01/02 20:13:47;;;;;;;6.10;3.25;;;;;;;8.70;59.55;97578.59;12760578;23;20332;-77
2022/01/02 20:19:08;;;;;;;5.10;2.90;;;;;;;8.63;59.87;97571.13;12761780;23;20013;-77
2022/01/02 20:24:29;;;;;;;7.57;2.75;;;;;;;8.63;59.87;97573.91;12760571;23;20024;-76
2022/01/02 20:29:51;;;;;;;6.90;2.90;;;;;;;8.63;59.96;97576.69;12760592;23;20013;-76
2022/01/02 20:35:13;;;;;;;4.95;2.72;;;;;;;8.65;60.39;97565.69;12760866;23;20071;-77
2022/01/02 20:40:34;;;;;;;5.30;3.05;;;;;;;8.60;60.55;97561.19;12760766;23;20079;-76
2022/01/02 20:45:54;;;;;;;4.97;2.58;;;;;;;8.61;60.70;97543.16;12760093;23;20017;-77
2022/01/02 20:51:16;;;;;;;6.35;2.35;;;;;;;8.60;61.84;97533.34;12762056;23;20023;-77
2022/01/02 20:56:37;;;;;;;5.50;2.30;;;;;;;8.60;61.52;97538.91;12783009;23;20459;-77
2022/01/02 21:01:58;;;;;;;8.35;3.17;;;;;;;8.60;62.59;97561.91;12790205;23;20020;-78
2022/01/02 21:07:19;;;;;;;5.07;2.50;;;;;;;8.58;62.33;97553.41;12791450;23;20017;-77
2022/01/02 21:12:40;;;;;;;3.17;2.22;;;;;;;8.63;62.11;97564.84;12761041;23;20021;-78
2022/01/02 21:18:01;;;;;;;5.35;3.05;;;;;;;8.63;62.76;97560.00;12774760;23;20017;-79
2022/01/02 21:23:22;;;;;;;5.68;2.47;;;;;;;8.63;62.76;97548.88;12796725;23;20155;-80
2022/01/02 21:28:42;;;;;;;4.82;2.47;;;;;;;8.69;62.92;97562.50;12773040;23;20394;-78
2022/01/02 21:34:03;;;;;;;6.60;2.55;;;;;;;8.76;63.32;97548.41;12780630;23;20047;-80
2022/01/02 21:39:27;;;;;;;6.57;3.08;;;;;;;8.77;63.30;97530.38;12758942;23;20020;-80
2022/01/02 21:44:49;;;;;;;7.47;3.28;;;;;;;8.74;63.58;97530.84;12762699;23;20436;-79
2022/01/02 21:50:10;;;;;;;5.85;3.03;;;;;;;8.68;63.59;97506.09;12766500;23;20084;-79
2022/01/02 21:55:33;;;;;;;4.63;3.05;;;;;;;8.68;63.96;97533.91;12765167;23;20023;-79
2022/01/02 22:00:54;;;;;;;5.45;2.97;;;;;;;8.67;64.02;97532.44;12766110;23;20021;-79
2022/01/02 22:06:16;;;;;;;8.15;3.65;;;;;;;8.62;64.18;97518.84;12663788;23;20105;-79
2022/01/02 22:11:36;;;;;;;7.45;2.72;;;;;;;8.58;64.18;97522.06;12682810;23;20021;-79
2022/01/02 22:16:58;;;;;;;5.55;3.00;;;;;;;8.52;64.71;97507.72;12642964;23;20014;-80
2022/01/02 22:22:20;;;;;;;4.25;2.38;;;;;;;8.52;65.00;97504.94;12663274;23;20053;-80
2022/01/02 22:27:42;;;;;;;3.38;2.10;;;;;;;8.57;64.89;97485.16;12642194;23;20014;-79
2022/01/02 22:33:06;;;;;;;4.82;2.25;;;;;;;8.64;64.90;97483.56;12620971;23;20017;-79
2022/01/02 22:38:28;;;;;;;4.28;2.25;;;;;;;8.70;65.18;97466.56;12656853;23;20460;-80
2022/01/02 22:43:50;;;;;;;3.25;1.75;;;;;;;8.77;65.10;97454.50;12638768;23;20022;-79
2022/01/02 22:49:11;;;;;;;4.32;1.67;;;;;;;8.84;65.36;97473.09;12657649;23;20488;-79
2022/01/02 22:54:34;;;;;;;3.20;1.45;;;;;;;8.93;65.18;97452.13;12658043;23;20039;-79
2022/01/02 22:59:55;;;;;;;5.63;1.75;;;;;;;8.99;65.66;97450.50;12638566;23;20100;-79
2022/01/02 23:05:16;;;;;;;3.08;1.50;;;;;;;9.03;65.32;97438.91;12697624;23;20032;-79
2022/01/02 23:10:37;;;;;;;3.83;1.50;;;;;;;9.04;65.69;97440.38;12758141;23;20017;-79
2022/01/02 23:16:00;;;;;;;3.70;1.35;;;;;;;9.07;65.72;97453.09;12718389;23;20089;-79
2022/01/02 23:21:51;;;;;;;3.03;1.00;;;;;;;9.12;65.88;97450.00;12761075;23;20340;-78
2022/01/02 23:27:12;;;;;;;4.10;1.08;;;;;;;9.23;66.10;97445.13;12778601;23;20013;-79
2022/01/02 23:32:33;;;;;;;4.85;1.70;;;;;;;9.29;65.73;97445.53;12738779;23;20021;-79
2022/01/02 23:37:54;;;;;;;2.65;1.27;;;;;;;9.32;66.00;97444.34;12757328;23;20012;-79
2022/01/02 23:43:15;;;;;;;3.75;1.33;;;;;;;9.33;65.53;97438.19;12759063;23;20017;-79
2022/01/02 23:48:41;;;;;;;5.47;1.25;;;;;;;9.33;66.03;97427.03;12763659;23;20021;-78
2022/01/02 23:54:03;;;;;;;3.28;1.40;;;;;;;9.28;65.87;97414.19;12761968;23;20547;-78
2022/01/02 23:59:24;;;;;;;3.67;0.95;;;;;;;9.31;65.62;97415.03;12741134;23;20432;-79
